createdAt,value
2022-12-15T00:00:09.395Z,0.05
2022-12-15T00:03:31.711Z,0.07
2022-12-15T00:06:54.712Z,0.04
2022-12-15T00:10:16.251Z,0.10
2022-12-15T00:13:37.452Z,0.14
2022-12-15T00:17:01.026Z,0.13
2022-12-15T00:20:23.051Z,0.11
2022-12-15T00:23:44.923Z,0.13
2022-12-15T00:27:07.528Z,0.19
2022-12-15T00:30:30.575Z,0.11
2022-12-15T00:33:52.043Z,0.20
2022-12-15T00:37:14.076Z,0.23
2022-12-15T00:40:16.906Z,0.28
2022-12-15T00:43:19.800Z,0.35
2022-12-15T00:46:41.059Z,0.38
2022-12-15T00:50:02.965Z,0.42
2022-12-15T00:53:24.331Z,0.45
2022-12-15T00:56:46.421Z,0.33
2022-12-15T01:00:07.873Z,0.45
2022-12-15T01:03:38.484Z,0.42
2022-12-15T01:06:59.916Z,0.44
2022-12-15T01:10:21.671Z,0.38
2022-12-15T01:13:49.928Z,0.29
2022-12-15T01:17:11.573Z,0.22
2022-12-15T01:20:20.106Z,0.40
2022-12-15T01:23:23.094Z,0.34
2022-12-15T01:26:25.841Z,0.37
2022-12-15T01:29:28.835Z,0.40
2022-12-15T01:32:31.500Z,0.48
2022-12-15T01:35:35.212Z,0.46
2022-12-15T01:38:38.293Z,0.49
2022-12-15T01:41:42.328Z,0.53
2022-12-15T01:44:50.051Z,0.63
2022-12-15T01:47:55.630Z,0.54
2022-12-15T01:51:04.256Z,0.48
2022-12-15T01:54:13.675Z,0.54
2022-12-15T01:57:25.793Z,0.54
2022-12-15T02:00:29.920Z,0.54
2022-12-15T02:03:33.822Z,0.45
2022-12-15T02:06:37.153Z,0.45
2022-12-15T02:09:40.948Z,0.46
2022-12-15T02:13:04.021Z,0.46
2022-12-15T02:16:14.070Z,0.44
2022-12-15T02:19:38.566Z,0.41
2022-12-15T02:23:19.087Z,0.41
2022-12-15T02:27:02.287Z,0.47
2022-12-15T02:30:34.871Z,0.45
2022-12-15T02:34:00.535Z,0.54
2022-12-15T02:37:08.331Z,0.57
2022-12-15T02:40:11.936Z,0.58
2022-12-15T02:43:15.955Z,0.68
2022-12-15T02:46:42.258Z,0.62
2022-12-15T02:50:03.127Z,0.60
2022-12-15T02:53:24.367Z,0.62
2022-12-15T02:56:49.752Z,0.63
2022-12-15T03:00:00.861Z,0.63
2022-12-15T03:03:03.882Z,0.66
2022-12-15T03:06:07.284Z,0.57
2022-12-15T03:09:11.137Z,0.65
2022-12-15T03:12:14.128Z,0.56
2022-12-15T03:15:17.613Z,0.61
2022-12-15T03:18:21.117Z,0.66
2022-12-15T03:21:25.923Z,0.73
2022-12-15T03:24:30.270Z,0.85
2022-12-15T03:27:33.349Z,0.88
2022-12-15T03:30:36.359Z,0.96
2022-12-15T03:33:39.385Z,1.04
2022-12-15T03:36:42.391Z,1.10
2022-12-15T03:39:45.181Z,0.98
2022-12-15T03:42:48.724Z,1.21
2022-12-15T03:45:52.787Z,1.27
2022-12-15T03:48:55.935Z,1.38
2022-12-15T03:51:59.867Z,1.49
2022-12-15T03:55:04.040Z,1.51
2022-12-15T03:58:09.059Z,1.57
2022-12-15T04:01:19.270Z,1.54
2022-12-15T04:04:22.274Z,1.44
2022-12-15T04:07:25.028Z,1.37
2022-12-15T04:10:34.242Z,1.42
2022-12-15T04:13:37.597Z,1.60
2022-12-15T04:16:41.860Z,1.54
2022-12-15T04:20:02.892Z,1.48
2022-12-15T04:23:10.329Z,1.46
2022-12-15T04:26:33.044Z,1.42
2022-12-15T04:29:54.785Z,1.42
2022-12-15T04:33:16.429Z,1.50
2022-12-15T04:36:38.143Z,1.33
2022-12-15T04:40:02.859Z,1.52
2022-12-15T04:43:25.463Z,1.49
2022-12-15T04:46:48.368Z,1.48
2022-12-15T04:50:10.236Z,1.18
2022-12-15T04:53:35.120Z,1.26
2022-12-15T04:56:56.799Z,1.46
2022-12-15T05:00:17.889Z,1.51
2022-12-15T05:03:43.051Z,1.58
2022-12-15T05:07:04.680Z,1.40
2022-12-15T05:10:26.535Z,1.42
2022-12-15T05:13:47.895Z,1.67
2022-12-15T05:17:09.997Z,1.70
2022-12-15T05:20:31.506Z,1.71
2022-12-15T05:23:53.226Z,1.82
2022-12-15T05:27:14.378Z,1.53
2022-12-15T05:30:36.069Z,1.73
2022-12-15T05:33:39.099Z,1.75
2022-12-15T05:36:42.275Z,1.80
2022-12-15T05:39:45.889Z,1.89
2022-12-15T05:42:50.243Z,1.92
2022-12-15T05:45:54.555Z,1.84
2022-12-15T05:48:57.636Z,1.75
2022-12-15T05:52:00.374Z,1.91
2022-12-15T05:55:03.579Z,1.84
2022-12-15T05:58:06.214Z,1.93
2022-12-15T06:01:14.811Z,1.83
2022-12-15T06:04:17.915Z,1.90
2022-12-15T06:07:20.678Z,2.08
2022-12-15T06:10:23.864Z,1.99
2022-12-15T06:13:37.008Z,2.00
2022-12-15T06:16:50.259Z,2.05
2022-12-15T06:19:53.865Z,2.09
2022-12-15T06:22:57.565Z,2.16
2022-12-15T06:26:07.887Z,1.94
2022-12-15T06:29:12.581Z,1.86
2022-12-15T06:32:15.251Z,1.87
2022-12-15T06:35:18.362Z,1.99
2022-12-15T06:38:21.000Z,1.95
2022-12-15T06:41:24.868Z,1.98
2022-12-15T06:44:27.520Z,1.91
2022-12-15T06:47:30.950Z,1.97
2022-12-15T06:50:34.703Z,1.93
2022-12-15T06:53:41.379Z,1.90
2022-12-15T06:56:44.096Z,1.82
2022-12-15T06:59:47.076Z,1.68
2022-12-15T07:02:50.074Z,1.62
2022-12-15T07:06:05.612Z,1.52
2022-12-15T07:09:14.140Z,1.59
2022-12-15T07:12:17.215Z,1.48
2022-12-15T07:15:20.011Z,1.41
2022-12-15T07:18:23.009Z,1.35
2022-12-15T07:21:25.809Z,1.39
2022-12-15T07:24:29.208Z,1.37
2022-12-15T07:27:31.947Z,1.39
2022-12-15T07:30:38.970Z,1.24
2022-12-15T07:33:41.823Z,1.25
2022-12-15T07:36:51.587Z,1.54
2022-12-15T07:39:54.962Z,1.62
2022-12-15T07:42:58.094Z,1.89
2022-12-15T07:46:01.272Z,2.17
2022-12-15T07:49:04.325Z,2.45
2022-12-15T07:52:07.298Z,2.30
2022-12-15T07:55:10.285Z,2.15
2022-12-15T07:58:14.146Z,2.13
2022-12-15T08:01:18.843Z,2.04
2022-12-15T08:04:21.949Z,2.18
2022-12-15T08:07:25.701Z,2.36
2022-12-15T08:10:48.097Z,2.28
2022-12-15T08:14:10.647Z,2.37
2022-12-15T08:17:15.230Z,2.47
2022-12-15T08:20:18.197Z,2.60
2022-12-15T08:23:21.680Z,2.65
2022-12-15T08:26:30.070Z,2.84
2022-12-15T08:29:50.666Z,3.23
2022-12-15T08:32:55.153Z,3.19
2022-12-15T08:36:00.029Z,3.14
2022-12-15T08:39:03.977Z,3.11
2022-12-15T08:42:08.532Z,3.13
2022-12-15T08:45:12.832Z,3.28
2022-12-15T08:48:15.927Z,3.42
2022-12-15T08:51:21.488Z,3.34
2022-12-15T08:54:25.460Z,3.46
2022-12-15T08:57:29.260Z,3.39
2022-12-15T09:00:31.891Z,3.22
2022-12-15T09:03:38.941Z,3.00
2022-12-15T09:06:42.169Z,2.98
2022-12-15T09:09:45.231Z,2.93
2022-12-15T09:12:48.008Z,3.07
2022-12-15T09:16:10.309Z,3.12
2022-12-15T09:19:13.640Z,2.92
2022-12-15T09:22:16.689Z,2.90
2022-12-15T09:25:19.341Z,2.90
2022-12-15T09:28:22.264Z,3.03
2022-12-15T09:31:30.490Z,3.55
2022-12-15T09:34:33.868Z,3.95
2022-12-15T09:37:36.536Z,3.82
2022-12-15T09:40:40.598Z,3.62
2022-12-15T09:44:03.515Z,3.64
2022-12-15T09:47:28.069Z,3.63
2022-12-15T09:50:41.281Z,3.78
2022-12-15T09:53:54.853Z,3.72
2022-12-15T09:57:03.046Z,3.36
2022-12-15T10:00:12.237Z,3.35
2022-12-15T10:03:53.234Z,3.43
2022-12-15T10:07:06.518Z,3.18
2022-12-15T10:10:30.161Z,3.19
2022-12-15T10:13:52.898Z,3.05
2022-12-15T10:17:16.053Z,3.00
2022-12-15T10:20:22.688Z,2.95
2022-12-15T10:23:26.007Z,2.81
2022-12-15T10:26:34.273Z,2.91
2022-12-15T10:29:44.793Z,3.06
2022-12-15T10:33:22.911Z,2.99
2022-12-15T10:36:27.634Z,2.56
2022-12-15T10:39:44.610Z,2.85
2022-12-15T10:42:50.162Z,3.08
2022-12-15T10:46:22.331Z,3.09
2022-12-15T10:49:25.577Z,3.01
2022-12-15T10:52:37.981Z,3.00
2022-12-15T10:55:49.765Z,2.97
2022-12-15T10:58:56.875Z,3.02
2022-12-15T11:02:23.518Z,2.92
2022-12-15T11:05:28.027Z,2.78
2022-12-15T11:08:32.195Z,2.73
2022-12-15T11:12:04.511Z,2.77
2022-12-15T11:15:22.649Z,2.77
2022-12-15T11:18:53.943Z,2.69
2022-12-15T11:22:01.611Z,2.59
2022-12-15T11:25:29.458Z,2.94
2022-12-15T11:28:46.115Z,3.40
2022-12-15T11:31:54.795Z,3.24
2022-12-15T11:34:59.377Z,2.92
2022-12-15T11:38:23.449Z,2.64
2022-12-15T11:41:45.011Z,3.05
2022-12-15T11:44:56.797Z,2.96
2022-12-15T11:48:19.678Z,2.51
2022-12-15T11:51:47.191Z,2.20
2022-12-15T11:55:02.515Z,2.12
2022-12-15T11:58:23.331Z,2.19
2022-12-15T12:01:26.316Z,2.09
2022-12-15T12:04:41.080Z,2.30
2022-12-15T12:08:00.043Z,2.47
2022-12-15T12:11:14.456Z,2.46
2022-12-15T12:14:17.240Z,2.45
2022-12-15T12:17:27.473Z,2.53
2022-12-15T12:20:43.840Z,2.53
2022-12-15T12:24:10.131Z,2.72
2022-12-15T12:27:33.991Z,2.67
2022-12-15T12:30:46.278Z,2.88
2022-12-15T12:33:58.971Z,2.93
2022-12-15T12:37:16.707Z,2.94
2022-12-15T12:40:40.914Z,2.99
2022-12-15T12:43:52.820Z,3.04
2022-12-15T12:46:58.836Z,3.03
2022-12-15T12:50:12.557Z,2.99
2022-12-15T12:53:35.241Z,2.95
2022-12-15T12:56:45.606Z,2.82
2022-12-15T13:00:01.222Z,2.84
2022-12-15T13:03:11.132Z,2.95
2022-12-15T13:06:39.806Z,3.06
2022-12-15T13:09:44.001Z,3.09
2022-12-15T13:12:53.259Z,3.05
2022-12-15T13:16:25.944Z,3.11
2022-12-15T13:19:56.747Z,3.06
2022-12-15T13:23:21.782Z,2.95
2022-12-15T13:26:31.638Z,2.82
2022-12-15T13:29:36.056Z,2.69
2022-12-15T13:32:41.504Z,2.72
2022-12-15T13:35:44.987Z,2.70
2022-12-15T13:38:55.544Z,2.62
2022-12-15T13:42:32.509Z,2.67
2022-12-15T13:45:38.505Z,2.70
2022-12-15T13:48:54.007Z,2.71
2022-12-15T13:53:08.094Z,2.71
2022-12-15T13:55:57.592Z,2.81
2022-12-15T13:59:12.698Z,2.88
2022-12-15T14:02:30.605Z,2.90
2022-12-15T14:05:33.940Z,2.92
2022-12-15T14:08:36.843Z,2.98
2022-12-15T14:11:57.565Z,3.00
2022-12-15T14:15:00.588Z,2.99
2022-12-15T14:18:03.725Z,2.96
2022-12-15T14:21:19.640Z,3.04
2022-12-15T14:24:38.606Z,3.14
2022-12-15T14:27:43.860Z,3.14
2022-12-15T14:34:18.020Z,3.10
2022-12-15T14:37:21.500Z,3.12
2022-12-15T14:40:28.974Z,3.02
2022-12-15T14:43:37.034Z,3.00
2022-12-15T14:46:45.614Z,2.94
2022-12-15T14:49:49.448Z,2.87
2022-12-15T14:52:58.176Z,2.79
2022-12-15T14:56:31.294Z,2.71
2022-12-15T14:59:35.836Z,2.64
2022-12-15T15:02:38.910Z,2.56
2022-12-15T15:03:16.631Z,3.08
2022-12-15T15:05:47.089Z,2.60
2022-12-15T15:08:52.903Z,2.63
2022-12-15T15:12:09.168Z,2.73
2022-12-15T15:15:17.956Z,2.67
2022-12-15T15:18:25.353Z,2.82
2022-12-15T15:21:30.422Z,2.86
2022-12-15T15:24:37.649Z,2.87
2022-12-15T15:27:40.611Z,2.81
2022-12-15T15:31:05.457Z,2.89
2022-12-15T15:34:08.788Z,2.92
2022-12-15T15:37:20.772Z,2.95
2022-12-15T15:40:24.874Z,2.85
2022-12-15T15:43:29.369Z,2.78
2022-12-15T15:46:36.010Z,2.72
2022-12-15T15:49:39.590Z,2.54
2022-12-15T15:52:45.154Z,2.62
2022-12-15T15:55:50.707Z,2.53
2022-12-15T15:58:53.928Z,2.50
2022-12-15T16:01:57.911Z,2.43
2022-12-15T16:05:01.050Z,2.36
2022-12-15T16:08:05.142Z,2.54
2022-12-15T16:11:12.096Z,2.52
2022-12-15T16:14:16.888Z,2.44
2022-12-15T16:17:22.209Z,2.41
2022-12-15T16:20:28.075Z,2.43
2022-12-15T16:23:31.092Z,2.51
2022-12-15T16:26:34.258Z,2.39
2022-12-15T16:29:37.481Z,2.58
2022-12-15T16:32:40.147Z,2.54
2022-12-15T16:35:44.632Z,2.53
2022-12-15T16:38:47.491Z,2.47
2022-12-15T16:41:52.870Z,2.42
2022-12-15T16:44:55.635Z,2.38
2022-12-15T16:47:58.928Z,2.24
2022-12-15T16:51:02.810Z,2.00
2022-12-15T16:54:07.391Z,1.94
2022-12-15T16:57:12.346Z,2.02
2022-12-15T17:00:25.069Z,2.01
2022-12-15T17:03:28.652Z,2.03
2022-12-15T17:06:32.602Z,2.25
2022-12-15T17:09:38.147Z,2.23
2022-12-15T17:12:41.570Z,2.32
2022-12-15T17:15:44.348Z,2.36
2022-12-15T17:18:49.703Z,2.31
2022-12-15T17:21:54.257Z,2.30
2022-12-15T17:24:57.226Z,2.62
2022-12-15T17:28:00.776Z,2.46
2022-12-15T17:31:04.463Z,2.52
2022-12-15T17:34:22.838Z,2.46
2022-12-15T17:37:29.268Z,2.39
2022-12-15T17:40:36.474Z,2.59
2022-12-15T17:43:40.840Z,2.62
2022-12-15T17:46:44.199Z,2.78
2022-12-15T17:49:47.658Z,2.78
2022-12-15T17:52:50.660Z,2.60
2022-12-15T17:55:55.944Z,2.42
2022-12-15T17:58:59.148Z,2.54
2022-12-15T18:02:02.482Z,2.39
2022-12-15T18:05:06.672Z,2.35
2022-12-15T18:08:27.955Z,2.33
2022-12-15T18:11:31.128Z,2.43
2022-12-15T18:14:35.440Z,2.50
2022-12-15T18:17:44.593Z,2.57
2022-12-15T18:20:49.735Z,2.62
2022-12-15T18:27:22.161Z,2.91
2022-12-15T18:30:27.302Z,3.00
2022-12-15T18:33:31.277Z,2.92
2022-12-15T18:36:37.734Z,2.91
2022-12-15T18:39:41.925Z,2.70
2022-12-15T18:42:47.937Z,2.67
2022-12-15T18:45:53.691Z,2.81
2022-12-15T18:48:57.369Z,2.84
2022-12-15T18:52:01.631Z,2.86
2022-12-15T18:55:16.637Z,2.83
2022-12-15T18:58:24.872Z,2.89
2022-12-15T19:01:28.768Z,2.90
2022-12-15T19:04:32.279Z,2.89
2022-12-15T19:07:37.946Z,2.97
2022-12-15T19:10:50.426Z,3.03
2022-12-15T19:13:54.089Z,2.99
2022-12-15T19:17:16.640Z,2.78
2022-12-15T19:20:39.692Z,2.65
2022-12-15T19:23:42.803Z,2.81
2022-12-15T19:26:46.153Z,2.75
2022-12-15T19:29:52.304Z,2.86
2022-12-15T19:32:56.556Z,3.04
2022-12-15T19:35:59.725Z,3.03
2022-12-15T19:39:04.045Z,3.00
2022-12-15T19:42:19.145Z,2.86
2022-12-15T19:45:26.447Z,2.80
2022-12-15T19:48:30.418Z,2.60
2022-12-15T19:51:36.639Z,2.64
2022-12-15T19:54:40.774Z,2.63
2022-12-15T19:57:45.993Z,2.50
2022-12-15T20:00:50.622Z,2.69
2022-12-15T20:03:56.716Z,2.79
2022-12-15T20:07:03.474Z,2.97
2022-12-15T20:10:27.859Z,2.95
2022-12-15T20:13:35.205Z,2.90
2022-12-15T20:16:38.950Z,2.89
2022-12-15T20:19:43.886Z,2.97
2022-12-15T20:22:54.087Z,2.89
2022-12-15T20:25:58.503Z,2.89
2022-12-15T20:29:04.955Z,2.83
2022-12-15T20:32:18.023Z,2.87
2022-12-15T20:35:23.443Z,2.97
2022-12-15T20:38:34.551Z,3.08
2022-12-15T20:41:38.513Z,3.04
2022-12-15T20:44:44.653Z,3.23
2022-12-15T20:47:50.178Z,3.28
2022-12-15T20:50:54.596Z,3.24
2022-12-15T20:54:01.581Z,3.34
2022-12-15T20:57:05.077Z,3.32
2022-12-15T21:00:10.741Z,3.54
2022-12-15T21:03:29.035Z,3.54
2022-12-15T21:06:32.826Z,3.50
2022-12-15T21:09:36.214Z,3.55
2022-12-15T21:12:40.964Z,3.44
2022-12-15T21:15:43.886Z,3.39
2022-12-15T21:19:19.897Z,3.46
2022-12-15T21:22:28.720Z,3.33
2022-12-15T21:25:32.186Z,3.35
2022-12-15T21:28:35.047Z,3.18
2022-12-15T21:31:39.141Z,3.27
2022-12-15T21:34:43.064Z,3.30
2022-12-15T21:37:51.841Z,3.03
2022-12-15T21:41:07.884Z,3.05
2022-12-15T21:44:14.719Z,3.26
2022-12-15T21:47:47.734Z,3.22
2022-12-15T21:50:52.119Z,3.22
2022-12-15T21:53:55.082Z,3.29
2022-12-15T21:56:59.532Z,3.36
2022-12-15T22:00:17.928Z,3.44
2022-12-15T22:03:20.894Z,3.33
2022-12-15T22:06:29.046Z,3.20
2022-12-15T22:09:32.013Z,3.03
2022-12-15T22:12:34.823Z,3.14
2022-12-15T22:15:37.858Z,3.28
2022-12-15T22:18:40.537Z,3.31
2022-12-15T22:21:44.697Z,3.36
2022-12-15T22:24:48.819Z,3.36
2022-12-15T22:27:55.068Z,3.60
2022-12-15T22:30:58.480Z,3.52
2022-12-15T22:34:01.659Z,3.64
2022-12-15T22:37:04.320Z,3.60
2022-12-15T22:40:07.770Z,3.52
2022-12-15T22:43:56.962Z,3.38
2022-12-15T22:47:02.746Z,3.57
2022-12-15T22:50:06.235Z,3.54
2022-12-15T22:53:14.777Z,3.64
2022-12-15T22:56:24.892Z,3.49
2022-12-15T22:59:35.764Z,3.54
2022-12-15T23:02:43.159Z,3.33
2022-12-15T23:05:47.766Z,3.42
2022-12-15T23:08:55.898Z,3.43
2022-12-15T23:11:59.413Z,3.36
2022-12-15T23:15:21.843Z,3.19
2022-12-15T23:18:25.004Z,3.18
2022-12-15T23:21:28.390Z,3.19
2022-12-15T23:24:31.500Z,3.44
2022-12-15T23:27:34.216Z,3.39
2022-12-15T23:30:37.308Z,3.36
2022-12-15T23:33:41.341Z,3.35
2022-12-15T23:36:44.641Z,3.42
2022-12-15T23:39:47.335Z,3.37
2022-12-15T23:42:51.399Z,3.38
2022-12-15T23:46:02.316Z,3.28
2022-12-15T23:49:05.273Z,3.41
2022-12-15T23:52:08.640Z,3.48
2022-12-15T23:55:11.991Z,3.31
2022-12-15T23:58:14.735Z,3.28
